createdAt,value
2018-11-05T00:02:05.742Z,71.70
2018-11-05T00:04:34.557Z,67.83
2018-11-05T00:07:03.253Z,66.13
2018-11-05T00:09:31.826Z,68.77
2018-11-05T00:12:00.392Z,76.30
2018-11-05T00:14:28.961Z,72.90
2018-11-05T00:16:57.489Z,75.57
2018-11-05T00:19:26.013Z,74.00
2018-11-05T00:21:54.562Z,77.23
2018-11-05T00:24:23.097Z,68.13
2018-11-05T00:26:51.655Z,71.20
2018-11-05T00:29:20.292Z,72.57
2018-11-05T00:31:48.847Z,72.50
2018-11-05T00:34:17.396Z,81.70
2018-11-05T00:36:45.978Z,81.73
2018-11-05T00:39:14.533Z,80.50
2018-11-05T00:41:43.284Z,80.23
2018-11-05T00:44:11.925Z,80.70
2018-11-05T00:46:40.468Z,86.27
2018-11-05T00:49:09.051Z,83.07
2018-11-05T00:51:37.641Z,93.70
2018-11-05T00:54:06.553Z,92.03
2018-11-05T00:56:35.115Z,74.03
2018-11-05T00:59:03.712Z,88.50
2018-11-05T01:01:32.288Z,87.37
2018-11-05T01:04:00.924Z,93.10
2018-11-05T01:06:29.474Z,88.13
2018-11-05T01:08:58.022Z,83.60
2018-11-05T01:11:26.608Z,89.53
2018-11-05T01:13:55.170Z,92.97
2018-11-05T01:16:23.681Z,84.63
2018-11-05T01:18:52.884Z,89.27
2018-11-05T01:21:21.449Z,87.43
2018-11-05T01:23:49.989Z,85.47
2018-11-05T01:26:18.506Z,81.83
2018-11-05T01:28:47.242Z,80.57
2018-11-05T01:31:15.969Z,82.60
2018-11-05T01:33:44.861Z,84.77
2018-11-05T01:36:13.989Z,83.03
2018-11-05T01:38:43.223Z,88.50
2018-11-05T01:41:11.821Z,87.53
2018-11-05T01:43:41.135Z,81.57
2018-11-05T01:46:09.746Z,85.83
2018-11-05T01:48:38.339Z,88.63
2018-11-05T01:51:07.486Z,93.67
2018-11-05T01:53:36.313Z,85.57
2018-11-05T01:56:05.066Z,79.67
2018-11-05T01:58:33.728Z,90.27
2018-11-05T02:01:02.629Z,90.00
2018-11-05T02:03:31.163Z,88.20
2018-11-05T02:05:59.749Z,95.20
2018-11-05T02:08:28.258Z,98.10
2018-11-05T02:10:56.799Z,97.97
2018-11-05T02:13:25.409Z,103.43
2018-11-05T02:15:54.211Z,98.90
2018-11-05T02:18:22.911Z,82.10
2018-11-05T02:20:51.479Z,109.83
2018-11-05T02:23:20.014Z,115.67
2018-11-05T02:25:48.558Z,106.83
2018-11-05T02:28:17.148Z,103.50
2018-11-05T02:30:45.773Z,112.97
2018-11-05T02:33:14.346Z,103.03
2018-11-05T02:35:42.938Z,102.07
2018-11-05T02:38:11.498Z,103.70
2018-11-05T02:40:40.206Z,94.77
2018-11-05T02:43:08.811Z,102.10
2018-11-05T02:45:37.463Z,92.87
2018-11-05T02:48:06.339Z,92.50
2018-11-05T02:50:36.639Z,95.07
2018-11-05T02:53:05.269Z,88.53
2018-11-05T02:55:33.886Z,83.80
2018-11-05T02:58:02.552Z,91.53
2018-11-05T03:00:31.098Z,90.27
2018-11-05T03:02:59.682Z,85.93
2018-11-05T03:05:28.405Z,84.90
2018-11-05T03:07:56.942Z,95.03
2018-11-05T03:10:25.597Z,84.13
2018-11-05T03:12:54.212Z,79.57
2018-11-05T03:15:22.770Z,88.53
2018-11-05T03:17:51.329Z,86.23
2018-11-05T03:20:19.889Z,92.17
2018-11-05T03:22:48.426Z,95.10
2018-11-05T03:25:16.990Z,97.73
2018-11-05T03:27:45.582Z,90.63
2018-11-05T03:30:15.940Z,88.20
2018-11-05T03:32:44.682Z,92.63
2018-11-05T03:35:14.070Z,82.47
2018-11-05T03:37:43.532Z,85.07
2018-11-05T03:40:12.953Z,85.20
2018-11-05T03:42:42.404Z,92.90
2018-11-05T03:45:12.519Z,95.53
2018-11-05T03:47:41.077Z,96.27
2018-11-05T03:50:11.947Z,99.30
2018-11-05T03:52:40.603Z,91.30
2018-11-05T03:55:09.293Z,99.23
2018-11-05T03:57:38.007Z,100.93
2018-11-05T04:00:07.582Z,89.53
2018-11-05T04:02:36.202Z,87.23
2018-11-05T04:05:05.035Z,84.90
2018-11-05T04:07:33.569Z,96.43
2018-11-05T04:10:02.197Z,101.10
2018-11-05T04:12:30.769Z,98.20
2018-11-05T04:14:59.314Z,103.43
2018-11-05T04:17:27.862Z,92.37
2018-11-05T04:19:56.454Z,96.80
2018-11-05T04:22:24.983Z,105.83
2018-11-05T04:24:53.537Z,100.40
2018-11-05T04:27:22.143Z,95.27
2018-11-05T04:29:50.721Z,94.07
2018-11-05T04:32:19.306Z,87.33
2018-11-05T04:34:47.939Z,89.20
2018-11-05T04:37:16.521Z,100.47
2018-11-05T04:39:45.065Z,90.97
2018-11-05T04:42:14.333Z,91.53
2018-11-05T04:44:43.050Z,91.47
2018-11-05T04:47:11.739Z,74.87
2018-11-05T04:49:41.209Z,91.10
2018-11-05T04:52:09.967Z,91.30
2018-11-05T04:54:38.654Z,91.83
2018-11-05T04:57:07.313Z,96.73
2018-11-05T04:59:36.451Z,94.37
2018-11-05T05:02:05.346Z,98.97
2018-11-05T05:04:33.969Z,94.87
2018-11-05T05:07:02.621Z,105.70
2018-11-05T05:09:31.445Z,95.00
2018-11-05T05:12:00.045Z,94.87
2018-11-05T05:14:28.637Z,102.30
2018-11-05T05:16:57.137Z,87.57
2018-11-05T05:19:26.013Z,91.23
2018-11-05T05:21:54.664Z,101.20
2018-11-05T05:24:23.261Z,96.80
2018-11-05T05:26:52.504Z,90.30
2018-11-05T05:29:21.025Z,83.77
2018-11-05T05:31:49.726Z,107.40
2018-11-05T05:34:18.369Z,104.10
2018-11-05T05:36:47.013Z,106.70
2018-11-05T05:39:15.615Z,105.80
2018-11-05T05:41:44.686Z,107.57
2018-11-05T05:44:13.305Z,107.70
2018-11-05T05:46:42.105Z,100.73
2018-11-05T05:49:10.829Z,95.50
2018-11-05T05:51:39.559Z,96.77
2018-11-05T05:54:08.759Z,101.83
2018-11-05T05:56:37.810Z,98.17
2018-11-05T05:59:06.477Z,102.17
2018-11-05T06:01:35.049Z,97.10
2018-11-05T06:04:04.913Z,103.87
2018-11-05T06:06:33.689Z,109.23
2018-11-05T06:09:02.503Z,105.53
2018-11-05T06:11:32.462Z,98.63
2018-11-05T06:14:01.157Z,102.33
2018-11-05T06:16:29.821Z,414.23
2018-11-05T06:18:58.414Z,165.90
2018-11-05T06:21:26.953Z,473.30
2018-11-05T06:23:55.508Z,265.40
2018-11-05T06:26:24.078Z,97.37
2018-11-05T06:28:52.679Z,118.27
2018-11-05T06:31:21.262Z,175.53
2018-11-05T06:33:49.821Z,106.97
2018-11-05T06:36:18.449Z,198.13
2018-11-05T06:38:46.978Z,198.97
2018-11-05T06:41:15.902Z,84.23
2018-11-05T06:43:44.666Z,116.70
2018-11-05T06:46:13.626Z,84.43
2018-11-05T06:48:42.583Z,73.87
2018-11-05T06:51:11.295Z,67.57
2018-11-05T06:53:39.882Z,73.60
2018-11-05T06:56:08.462Z,67.53
2018-11-05T06:58:37.701Z,74.73
2018-11-05T07:01:06.866Z,73.83
2018-11-05T07:03:35.681Z,75.20
2018-11-05T07:06:04.345Z,72.90
2018-11-05T07:08:32.958Z,63.20
2018-11-05T07:11:01.554Z,73.53
2018-11-05T07:13:30.251Z,75.93
2018-11-05T07:15:58.792Z,67.03
2018-11-05T07:18:27.456Z,63.17
2018-11-05T07:20:56.090Z,64.87
2018-11-05T07:23:24.673Z,68.43
2018-11-05T07:25:53.333Z,76.60
2018-11-05T07:28:22.027Z,59.20
2018-11-05T07:30:50.571Z,68.90
2018-11-05T07:33:19.222Z,65.50
2018-11-05T07:35:47.915Z,116.27
2018-11-05T07:38:16.446Z,111.67
2018-11-05T07:40:45.131Z,125.30
2018-11-05T07:43:13.662Z,58.70
2018-11-05T07:45:42.213Z,67.53
2018-11-05T07:48:10.783Z,60.20
2018-11-05T07:50:39.339Z,66.07
2018-11-05T07:53:08.082Z,60.13
2018-11-05T07:55:36.861Z,52.30
2018-11-05T07:58:05.451Z,57.43
2018-11-05T08:00:39.334Z,63.53
2018-11-05T08:03:07.870Z,52.73
2018-11-05T08:05:36.437Z,63.97
2018-11-05T08:08:06.387Z,67.00
2018-11-05T08:10:35.098Z,57.53
2018-11-05T08:13:03.661Z,51.17
2018-11-05T08:15:32.264Z,54.33
2018-11-05T08:18:00.806Z,52.67
2018-11-05T08:20:29.372Z,52.53
2018-11-05T08:22:58.020Z,48.93
2018-11-05T08:25:26.697Z,54.67
2018-11-05T08:27:55.282Z,52.37
2018-11-05T08:30:25.073Z,54.73
2018-11-05T08:32:53.847Z,45.97
2018-11-05T08:35:23.139Z,46.13
2018-11-05T08:37:52.226Z,46.60
2018-11-05T08:40:26.576Z,42.90
2018-11-05T08:42:56.462Z,43.47
2018-11-05T08:45:26.438Z,41.67
2018-11-05T08:47:55.023Z,42.57
2018-11-05T08:50:24.453Z,37.97
2018-11-05T08:52:53.151Z,40.40
2018-11-05T08:55:25.323Z,38.23
2018-11-05T08:57:56.114Z,35.63
2018-11-05T09:00:29.978Z,35.43
2018-11-05T09:02:58.518Z,34.70
2018-11-05T09:05:27.133Z,40.83
2018-11-05T09:07:56.360Z,33.93
2018-11-05T09:10:24.999Z,36.40
2018-11-05T09:12:53.729Z,34.50
2018-11-05T09:15:22.976Z,35.53
2018-11-05T09:17:51.788Z,32.30
2018-11-05T09:20:20.718Z,33.53
2018-11-05T09:22:50.466Z,27.67
2018-11-05T09:25:19.537Z,32.33
2018-11-05T09:27:48.144Z,31.33
2018-11-05T09:30:20.092Z,26.43
2018-11-05T09:32:48.687Z,29.60
2018-11-05T09:35:17.278Z,27.33
2018-11-05T09:37:45.864Z,27.97
2018-11-05T09:40:18.193Z,28.80
2018-11-05T09:42:47.803Z,31.83
2018-11-05T09:45:19.917Z,25.87
2018-11-05T09:47:48.604Z,24.57
2018-11-05T09:50:17.896Z,27.80
2018-11-05T09:52:46.469Z,29.00
2018-11-05T09:55:15.729Z,25.50
2018-11-05T09:57:44.285Z,21.93
2018-11-05T10:00:16.577Z,25.27
2018-11-05T10:02:50.485Z,28.20
2018-11-05T10:05:19.327Z,24.47
2018-11-05T10:07:48.010Z,29.23
2018-11-05T10:10:17.470Z,26.67
2018-11-05T10:12:46.103Z,31.10
2018-11-05T10:15:16.047Z,26.53
2018-11-05T10:17:44.764Z,22.23
2018-11-05T10:20:17.861Z,25.07
2018-11-05T10:22:46.853Z,25.00
2018-11-05T10:25:15.899Z,26.83
2018-11-05T10:27:45.060Z,26.57
2018-11-05T10:30:21.927Z,26.57
2018-11-05T10:32:50.578Z,27.67
2018-11-05T10:35:20.253Z,25.90
2018-11-05T10:37:48.929Z,24.27
2018-11-05T10:40:19.338Z,22.07
2018-11-05T10:42:48.620Z,26.23
2018-11-05T10:45:18.552Z,25.60
2018-11-05T10:47:47.175Z,24.07
2018-11-05T10:50:16.716Z,26.00
2018-11-05T10:52:46.777Z,22.63
2018-11-05T10:55:15.710Z,28.13
2018-11-05T10:57:44.564Z,25.30
2018-11-05T11:00:19.954Z,25.87
2018-11-05T11:02:53.639Z,27.03
2018-11-05T11:05:22.955Z,25.57
2018-11-05T11:07:52.117Z,28.40
2018-11-05T11:10:20.692Z,24.80
2018-11-05T11:12:49.304Z,23.33
2018-11-05T11:15:17.993Z,26.80
2018-11-05T11:17:46.681Z,23.33
2018-11-05T11:20:15.353Z,22.57
2018-11-05T11:22:43.874Z,26.20
2018-11-05T11:25:12.578Z,26.63
2018-11-05T11:27:41.215Z,26.83
2018-11-05T11:30:11.600Z,25.97
2018-11-05T11:32:40.780Z,26.83
2018-11-05T11:35:09.913Z,26.50
2018-11-05T11:37:38.759Z,22.63
2018-11-05T11:40:15.310Z,24.17
2018-11-05T11:42:44.874Z,23.47
2018-11-05T11:45:14.152Z,24.63
2018-11-05T11:47:42.824Z,25.20
2018-11-05T11:50:13.455Z,25.63
2018-11-05T11:52:42.337Z,25.57
2018-11-05T11:55:13.366Z,23.53
2018-11-05T11:57:42.253Z,21.70
2018-11-05T12:00:16.761Z,23.13
2018-11-05T12:02:46.388Z,22.10
2018-11-05T12:05:15.073Z,28.23
2018-11-05T12:07:44.150Z,23.90
2018-11-05T12:10:15.123Z,23.27
2018-11-05T12:12:44.078Z,22.57
2018-11-05T12:15:13.422Z,22.03
2018-11-05T12:17:43.015Z,22.93
2018-11-05T12:20:13.791Z,21.03
2018-11-05T12:22:42.997Z,21.67
2018-11-05T12:25:11.594Z,19.43
2018-11-05T12:27:40.165Z,21.00
2018-11-05T12:30:18.650Z,21.23
2018-11-05T12:32:47.940Z,22.57
2018-11-05T12:37:57.173Z,21.37
2018-11-05T12:40:25.706Z,32.37
2018-11-05T12:42:54.513Z,22.47
2018-11-05T12:45:23.154Z,24.50
2018-11-05T12:47:51.685Z,24.60
2018-11-05T12:50:21.501Z,22.43
2018-11-05T12:52:51.110Z,23.03
2018-11-05T12:55:19.683Z,23.00
2018-11-05T12:57:48.568Z,28.17
2018-11-05T13:00:19.123Z,35.47
2018-11-05T13:02:52.779Z,22.80
2018-11-05T13:05:21.677Z,25.70
2018-11-05T13:07:50.317Z,19.03
2018-11-05T13:10:18.897Z,24.80
2018-11-05T13:12:47.574Z,21.77
2018-11-05T13:15:16.326Z,24.80
2018-11-05T13:17:44.986Z,21.80
2018-11-05T13:20:17.525Z,21.50
2018-11-05T13:22:46.416Z,18.23
2018-11-05T13:25:15.169Z,17.83
2018-11-05T13:27:45.813Z,18.50
2018-11-05T13:30:15.249Z,17.10
2018-11-05T13:32:44.264Z,18.87
2018-11-05T13:35:14.557Z,16.10
2018-11-05T13:37:43.360Z,15.50
2018-11-05T13:40:17.098Z,19.87
2018-11-05T13:42:46.177Z,18.67
2018-11-05T13:45:15.440Z,16.30
2018-11-05T13:47:44.848Z,15.40
2018-11-05T13:50:13.665Z,14.43
2018-11-05T13:52:42.393Z,17.17
2018-11-05T13:55:13.054Z,16.30
2018-11-05T13:57:42.685Z,16.10
2018-11-05T14:00:13.498Z,22.50
2018-11-05T14:02:42.214Z,13.93
2018-11-05T14:05:11.783Z,18.20
2018-11-05T14:07:40.701Z,16.33
2018-11-05T14:10:13.806Z,17.00
2018-11-05T14:12:43.375Z,16.77
2018-11-05T14:15:12.050Z,20.87
2018-11-05T14:17:41.394Z,17.07
2018-11-05T14:20:11.572Z,17.10
2018-11-05T14:22:40.583Z,18.43
2018-11-05T14:25:12.214Z,17.47
2018-11-05T14:27:41.416Z,15.23
2018-11-05T14:30:12.962Z,20.17
2018-11-05T14:32:43.180Z,19.80
2018-11-05T14:35:12.097Z,22.67
2018-11-05T14:37:40.741Z,23.97
2018-11-05T14:40:11.043Z,25.33
2018-11-05T14:42:39.658Z,18.40
2018-11-05T14:45:10.841Z,22.10
2018-11-05T14:47:39.875Z,27.93
2018-11-05T14:50:11.393Z,26.37
2018-11-05T14:52:39.970Z,24.17
2018-11-05T14:55:11.019Z,21.77
2018-11-05T14:57:39.778Z,22.23
2018-11-05T15:00:19.327Z,37.20
2018-11-05T15:02:48.871Z,31.90
2018-11-05T15:05:17.830Z,30.17
2018-11-05T15:07:47.231Z,26.60
2018-11-05T15:10:21.068Z,136.27
2018-11-05T15:12:49.653Z,119.80
2018-11-05T15:15:18.835Z,198.73
2018-11-05T15:17:47.709Z,142.93
2018-11-05T15:20:17.917Z,112.80
2018-11-05T15:22:46.342Z,95.90
2018-11-05T15:25:16.076Z,90.87
2018-11-05T15:27:44.718Z,48.50
2018-11-05T15:30:17.017Z,64.03
2018-11-05T15:32:45.846Z,64.40
2018-11-05T15:35:14.920Z,56.97
2018-11-05T15:37:43.810Z,81.20
2018-11-05T15:40:15.744Z,42.57
2018-11-05T15:42:44.290Z,27.63
2018-11-05T15:45:14.542Z,37.13
2018-11-05T15:47:43.375Z,25.07
2018-11-05T15:50:14.845Z,36.07
2018-11-05T15:52:43.895Z,32.23
2018-11-05T15:55:12.545Z,24.10
2018-11-05T15:57:41.306Z,17.30
2018-11-05T16:00:17.286Z,17.30
2018-11-05T16:02:47.513Z,22.73
2018-11-05T16:05:16.102Z,23.33
2018-11-05T16:07:44.899Z,24.13
2018-11-05T16:10:13.475Z,24.07
2018-11-05T16:12:42.798Z,16.43
2018-11-05T16:15:12.226Z,17.07
2018-11-05T16:17:42.923Z,22.03
2018-11-05T16:20:13.773Z,22.20
2018-11-05T16:22:42.555Z,18.50
2018-11-05T16:25:11.202Z,26.60
2018-11-05T16:27:39.932Z,31.20
2018-11-05T16:30:11.262Z,29.67
2018-11-05T16:32:39.925Z,26.13
2018-11-05T16:35:08.782Z,19.20
2018-11-05T16:37:37.497Z,23.50
2018-11-05T16:40:08.228Z,22.10
2018-11-05T16:42:37.187Z,30.27
2018-11-05T16:45:06.698Z,21.47
2018-11-05T16:47:35.401Z,25.77
2018-11-05T16:50:04.469Z,26.83
2018-11-05T16:52:33.016Z,28.57
2018-11-05T16:55:01.659Z,32.77
2018-11-05T16:57:30.236Z,35.77
2018-11-05T16:59:58.949Z,36.10
2018-11-05T17:02:27.813Z,35.50
2018-11-05T17:04:56.397Z,45.23
2018-11-05T17:07:24.958Z,85.60
2018-11-05T17:09:53.553Z,95.27
2018-11-05T17:12:22.133Z,48.73
2018-11-05T17:14:50.670Z,30.40
2018-11-05T17:17:19.238Z,32.30
2018-11-05T17:19:47.797Z,34.23
2018-11-05T17:22:16.397Z,26.57
2018-11-05T17:24:44.985Z,29.57
2018-11-05T17:27:13.565Z,32.70
2018-11-05T17:29:42.099Z,29.20
2018-11-05T17:32:10.689Z,28.00
2018-11-05T17:34:39.238Z,24.77
2018-11-05T17:37:07.825Z,21.37
2018-11-05T17:39:36.409Z,30.13
2018-11-05T17:42:05.541Z,29.33
2018-11-05T17:44:34.118Z,30.73
2018-11-05T17:47:02.693Z,21.50
2018-11-05T17:49:31.386Z,28.17
2018-11-05T17:52:00.130Z,28.53
2018-11-05T17:54:28.749Z,19.63
2018-11-05T17:56:57.323Z,22.93
2018-11-05T17:59:26.134Z,36.27
2018-11-05T18:01:54.787Z,31.90
2018-11-05T18:04:23.543Z,29.10
2018-11-05T18:06:52.363Z,31.90
2018-11-05T18:09:21.271Z,27.27
2018-11-05T18:11:50.026Z,30.77
2018-11-05T18:14:18.659Z,28.90
2018-11-05T18:16:47.310Z,32.43
2018-11-05T18:19:15.949Z,51.70
2018-11-05T18:21:44.575Z,35.63
2018-11-05T18:24:13.229Z,49.70
2018-11-05T18:26:41.977Z,57.87
2018-11-05T18:29:10.532Z,48.63
2018-11-05T18:31:39.136Z,38.23
2018-11-05T18:34:07.778Z,33.83
2018-11-05T18:36:36.367Z,32.50
2018-11-05T18:39:08.106Z,40.37
2018-11-05T18:41:36.682Z,39.10
2018-11-05T18:44:05.298Z,39.73
2018-11-05T18:46:33.895Z,35.13
2018-11-05T18:49:04.456Z,34.50
2018-11-05T18:51:33.604Z,29.03
2018-11-05T18:54:02.164Z,36.97
2018-11-05T18:56:30.841Z,35.97
2018-11-05T18:58:59.585Z,35.53
2018-11-05T19:01:28.143Z,40.60
2018-11-05T19:03:56.716Z,35.40
2018-11-05T19:06:25.382Z,39.23
2018-11-05T19:08:54.093Z,40.73
2018-11-05T19:11:22.749Z,35.57
2018-11-05T19:13:51.776Z,38.67
2018-11-05T19:16:20.491Z,32.20
2018-11-05T19:18:49.028Z,37.83
2018-11-05T19:21:17.629Z,31.17
2018-11-05T19:23:46.431Z,35.57
2018-11-05T19:26:15.069Z,34.43
2018-11-05T19:28:43.747Z,37.70
2018-11-05T19:31:12.429Z,39.00
2018-11-05T19:33:41.098Z,37.13
2018-11-05T19:36:09.960Z,39.17
2018-11-05T19:38:38.810Z,35.60
2018-11-05T19:41:07.583Z,41.67
2018-11-05T19:43:36.768Z,39.00
2018-11-05T19:46:05.758Z,43.07
2018-11-05T19:48:34.365Z,41.07
2018-11-05T19:51:03.104Z,37.60
2018-11-05T19:53:31.843Z,34.67
2018-11-05T19:56:00.716Z,33.23
2018-11-05T19:58:29.457Z,37.47
2018-11-05T20:00:58.071Z,37.33
2018-11-05T20:03:26.950Z,37.57
2018-11-05T20:05:55.817Z,43.03
2018-11-05T20:08:24.625Z,47.10
2018-11-05T20:10:53.241Z,39.77
2018-11-05T20:13:21.858Z,50.17
2018-11-05T20:15:50.426Z,45.40
2018-11-05T20:18:19.030Z,33.77
2018-11-05T20:20:47.863Z,31.63
2018-11-05T20:23:16.586Z,30.63
2018-11-05T20:25:45.205Z,27.60
2018-11-05T20:28:13.840Z,28.20
2018-11-05T20:30:42.522Z,26.70
2018-11-05T20:33:11.295Z,27.33
2018-11-05T20:35:39.915Z,28.40
2018-11-05T20:38:08.686Z,25.57
2018-11-05T20:40:38.001Z,24.87
2018-11-05T20:43:07.092Z,28.10
2018-11-05T20:45:35.648Z,33.60
2018-11-05T20:48:04.340Z,27.47
2018-11-05T20:50:32.919Z,29.47
2018-11-05T20:53:01.465Z,26.30
2018-11-05T20:55:30.038Z,23.40
2018-11-05T20:57:59.009Z,25.20
2018-11-05T21:00:27.585Z,29.97
2018-11-05T21:02:56.210Z,22.80
2018-11-05T21:05:24.932Z,24.00
2018-11-05T21:07:53.533Z,24.50
2018-11-05T21:10:22.077Z,23.60
2018-11-05T21:12:50.868Z,36.33
2018-11-05T21:15:20.822Z,46.47
2018-11-05T21:17:50.228Z,56.33
2018-11-05T21:20:18.969Z,72.33
2018-11-05T21:22:48.538Z,58.27
2018-11-05T21:25:17.453Z,31.17
2018-11-05T21:27:46.275Z,26.90
2018-11-05T21:30:16.899Z,22.33
2018-11-05T21:32:45.563Z,28.57
2018-11-05T21:35:15.528Z,24.90
2018-11-05T21:37:44.189Z,24.70
2018-11-05T21:40:14.072Z,25.60
2018-11-05T21:42:42.669Z,28.80
2018-11-05T21:45:12.457Z,27.83
2018-11-05T21:47:41.481Z,29.17
2018-11-05T21:50:11.770Z,25.17
2018-11-05T21:52:41.375Z,28.53
2018-11-05T21:55:10.223Z,26.83
2018-11-05T21:57:40.617Z,31.50
2018-11-05T22:00:13.125Z,27.07
2018-11-05T22:02:47.063Z,30.10
2018-11-05T22:05:15.966Z,29.33
2018-11-05T22:07:44.557Z,27.57
2018-11-05T22:10:13.692Z,29.00
2018-11-05T22:12:42.612Z,39.43
2018-11-05T22:15:11.269Z,34.23
2018-11-05T22:17:39.839Z,30.67
2018-11-05T22:20:09.608Z,31.67
2018-11-05T22:22:38.657Z,27.03
2018-11-05T22:25:07.428Z,28.70
2018-11-05T22:27:36.106Z,32.83
2018-11-05T22:30:05.949Z,29.67
2018-11-05T22:32:34.476Z,26.33
2018-11-05T22:35:03.051Z,28.83
2018-11-05T22:37:31.621Z,32.30
2018-11-05T22:40:00.318Z,32.17
2018-11-05T22:42:28.900Z,30.33
2018-11-05T22:44:57.437Z,27.37
2018-11-05T22:47:25.980Z,28.63
2018-11-05T22:49:54.530Z,32.47
2018-11-05T22:52:23.110Z,30.43
2018-11-05T22:54:51.706Z,24.13
2018-11-05T22:57:20.319Z,29.17
2018-11-05T22:59:49.010Z,25.57
2018-11-05T23:02:17.564Z,28.37
2018-11-05T23:04:46.109Z,22.10
2018-11-05T23:07:14.639Z,21.77
2018-11-05T23:09:43.186Z,26.73
2018-11-05T23:12:11.811Z,26.13
2018-11-05T23:14:40.666Z,22.17
2018-11-05T23:17:09.337Z,24.47
2018-11-05T23:19:37.921Z,22.87
2018-11-05T23:22:07.001Z,27.83
2018-11-05T23:24:35.870Z,23.17
2018-11-05T23:27:04.480Z,23.60
2018-11-05T23:29:33.046Z,23.17
2018-11-05T23:32:01.660Z,20.20
2018-11-05T23:34:30.238Z,22.67
2018-11-05T23:36:58.802Z,19.57
2018-11-05T23:39:27.769Z,19.80
2018-11-05T23:41:56.374Z,19.17
2018-11-05T23:44:24.933Z,21.13
2018-11-05T23:46:53.529Z,22.03
2018-11-05T23:49:22.113Z,23.10
2018-11-05T23:51:50.774Z,18.07
2018-11-05T23:54:19.417Z,21.07
2018-11-05T23:56:48.116Z,20.43
2018-11-05T23:59:16.694Z,23.43
